createdAt,value
2019-05-23T00:00:49.475Z,100589.37
2019-05-23T00:05:57.917Z,100588.88
2019-05-23T00:11:04.235Z,100588.88
2019-05-23T00:16:09.656Z,100589.48
2019-05-23T00:21:14.197Z,100589.48
2019-05-23T00:26:18.137Z,100595.22
2019-05-23T00:31:26.550Z,100593.98
2019-05-23T00:36:31.393Z,100598.14
2019-05-23T00:41:35.623Z,100598.14
2019-05-23T00:46:39.483Z,100599.36
2019-05-23T00:51:43.530Z,100599.36
2019-05-23T00:56:47.502Z,100606.78
2019-05-23T01:01:51.280Z,100608.26
2019-05-23T01:06:56.257Z,100607.03
2019-05-23T01:12:00.023Z,100611.92
2019-05-23T01:17:03.864Z,100611.92
2019-05-23T01:22:10.411Z,100615.72
2019-05-23T01:27:14.262Z,100612.27
2019-05-23T01:32:25.767Z,100610.06
2019-05-23T01:37:31.361Z,100616.06
2019-05-23T01:42:38.501Z,100616.06
2019-05-23T01:47:42.673Z,100613.37
2019-05-23T01:52:46.668Z,100616.91
2019-05-23T01:57:51.213Z,100617.28
2019-05-23T02:02:56.104Z,100617.28
2019-05-23T02:08:00.171Z,100614.72
2019-05-23T02:13:03.989Z,100611.66
2019-05-23T02:18:07.831Z,100614.96
2019-05-23T02:23:12.902Z,100614.96
2019-05-23T02:28:17.564Z,100616.31
2019-05-23T02:33:21.366Z,100611.55
2019-05-23T02:38:47.164Z,100610.08
2019-05-23T02:43:55.805Z,100610.08
2019-05-23T02:49:04.289Z,100608.36
2019-05-23T02:54:09.904Z,100613.73
2019-05-23T02:59:38.888Z,100608.97
2019-05-23T03:04:44.370Z,100614.84
2019-05-23T03:09:48.467Z,100613.13
2019-05-23T03:14:52.234Z,100617.16
2019-05-23T03:20:01.399Z,100614.47
2019-05-23T03:25:09.322Z,100614.47
2019-05-23T03:30:17.232Z,100614.96
2019-05-23T03:35:26.589Z,100618.48
2019-05-23T03:40:30.573Z,100614.81
2019-05-23T03:45:40.373Z,100616.16
2019-05-23T03:50:44.443Z,100610.78
2019-05-23T03:55:50.218Z,100607.00
2019-05-23T04:00:57.207Z,100607.13
2019-05-23T04:06:02.111Z,100610.30
2019-05-23T04:11:06.075Z,100610.30
2019-05-23T04:16:11.422Z,100609.08
2019-05-23T04:21:16.256Z,100611.28
2019-05-23T04:26:23.790Z,100611.28
2019-05-23T04:31:27.549Z,100600.98
2019-05-23T04:36:31.359Z,100619.47
2019-05-23T04:41:35.191Z,100619.83
2019-05-23T04:46:39.224Z,100619.83
2019-05-23T04:51:43.176Z,100625.69
2019-05-23T04:56:46.936Z,100630.21
2019-05-23T05:01:50.948Z,100636.45
2019-05-23T05:06:55.275Z,100636.94
2019-05-23T05:12:00.230Z,100639.98
2019-05-23T05:17:04.981Z,100639.98
2019-05-23T05:22:08.762Z,100638.77
2019-05-23T05:27:14.845Z,100639.63
2019-05-23T05:32:18.880Z,100647.19
2019-05-23T05:37:22.662Z,100651.10
2019-05-23T05:42:28.077Z,100652.45
2019-05-23T05:47:32.011Z,100652.45
2019-05-23T05:52:36.285Z,100655.98
2019-05-23T05:57:40.105Z,100658.19
2019-05-23T06:03:00.877Z,100656.84
2019-05-23T06:07:50.562Z,100660.87
2019-05-23T06:12:54.347Z,100659.05
2019-05-23T06:17:58.316Z,100662.09
2019-05-23T06:23:02.123Z,100662.09
2019-05-23T06:28:06.705Z,100684.69
2019-05-23T06:33:22.467Z,100681.80
2019-05-23T06:38:17.243Z,100689.02
2019-05-23T06:43:21.059Z,100686.02
2019-05-23T06:48:25.357Z,100688.83
2019-05-23T06:53:29.167Z,100689.20
2019-05-23T06:58:33.062Z,100684.42
2019-05-23T07:03:42.552Z,100687.09
2019-05-23T07:08:42.498Z,100694.29
2019-05-23T07:13:47.669Z,100694.29
2019-05-23T07:18:51.517Z,100699.03
2019-05-23T07:23:55.318Z,100686.28
2019-05-23T07:28:59.127Z,100688.70
2019-05-23T07:34:02.911Z,100696.11
2019-05-23T07:39:11.460Z,100688.84
2019-05-23T07:44:14.436Z,100690.16
2019-05-23T07:49:18.315Z,100690.16
2019-05-23T07:54:27.788Z,100699.30
2019-05-23T07:59:32.061Z,100682.61
2019-05-23T08:04:35.973Z,100682.61
2019-05-23T08:09:40.491Z,100683.91
2019-05-23T08:14:44.269Z,100673.97
2019-05-23T08:19:50.102Z,100672.28
2019-05-23T08:24:53.773Z,100667.56
2019-05-23T08:29:57.739Z,100668.34
2019-05-23T08:35:01.872Z,100662.25
2019-05-23T08:40:06.989Z,100662.25
2019-05-23T08:45:11.975Z,100660.31
2019-05-23T08:50:17.318Z,100660.19
2019-05-23T08:55:21.908Z,100662.39
2019-05-23T09:00:27.204Z,100669.28
2019-05-23T09:05:32.276Z,100662.20
2019-05-23T09:10:36.192Z,100655.97
2019-05-23T09:15:40.108Z,100655.97
2019-05-23T09:20:43.918Z,100661.50
2019-05-23T09:25:47.688Z,100661.50
2019-05-23T09:30:51.666Z,100651.32
2019-05-23T09:35:55.584Z,100651.32
2019-05-23T09:40:59.340Z,100660.53
2019-05-23T09:46:03.102Z,100662.85
2019-05-23T09:51:06.890Z,100662.85
2019-05-23T09:56:10.703Z,100658.13
2019-05-23T10:01:14.988Z,100650.97
2019-05-23T10:06:20.380Z,100650.97
2019-05-23T10:11:24.217Z,100649.25
2019-05-23T10:16:28.783Z,100651.33
2019-05-23T10:21:32.678Z,100651.33
2019-05-23T10:26:36.531Z,100640.22
2019-05-23T10:31:40.458Z,100642.78
2019-05-23T10:36:44.190Z,100630.70
2019-05-23T10:41:48.245Z,100642.88
2019-05-23T10:46:52.006Z,100642.88
2019-05-23T10:51:55.854Z,100620.23
2019-05-23T10:56:59.620Z,100616.11
2019-05-23T11:02:03.638Z,100622.09
2019-05-23T11:07:08.423Z,100614.92
2019-05-23T11:12:13.635Z,100610.52
2019-05-23T11:17:17.477Z,100617.60
2019-05-23T11:22:22.038Z,100617.60
2019-05-23T11:27:26.789Z,100602.73
2019-05-23T11:32:30.928Z,100591.60
2019-05-23T11:37:34.780Z,100591.60
2019-05-23T11:42:38.549Z,100593.08
2019-05-23T11:47:42.891Z,100591.61
2019-05-23T11:52:46.719Z,100583.67
2019-05-23T11:57:50.491Z,100586.23
2019-05-23T12:02:54.534Z,100581.23
2019-05-23T12:07:58.428Z,100583.42
2019-05-23T12:13:02.264Z,100582.45
2019-05-23T12:18:07.294Z,100584.28
2019-05-23T12:23:11.377Z,100581.23
2019-05-23T12:28:15.489Z,100584.77
2019-05-23T12:33:19.754Z,100584.77
2019-05-23T12:38:23.611Z,100575.47
2019-05-23T12:43:27.421Z,100565.94
2019-05-23T12:48:56.043Z,100563.38
2019-05-23T12:53:59.835Z,100555.70
2019-05-23T12:59:05.193Z,100556.92
2019-05-23T13:04:15.872Z,100547.16
2019-05-23T13:09:19.656Z,100547.16
2019-05-23T13:14:23.638Z,100536.53
2019-05-23T13:19:28.077Z,100524.42
2019-05-23T13:24:50.537Z,100520.14
2019-05-23T13:29:37.762Z,100524.45
2019-05-23T13:34:41.589Z,100521.50
2019-05-23T13:39:45.357Z,100525.67
2019-05-23T13:44:50.083Z,100520.65
2019-05-23T13:49:53.851Z,100510.87
2019-05-23T13:54:57.651Z,100512.94
2019-05-23T14:00:01.438Z,100512.94
2019-05-23T14:05:06.359Z,100510.52
2019-05-23T14:10:12.623Z,100504.74
2019-05-23T14:15:19.290Z,100504.51
2019-05-23T14:20:23.523Z,100498.02
2019-05-23T14:25:27.467Z,100498.02
2019-05-23T14:31:02.195Z,100487.39
2019-05-23T14:36:10.041Z,100489.33
2019-05-23T14:41:13.986Z,100489.33
2019-05-23T14:46:18.830Z,100484.53
2019-05-23T14:51:40.555Z,100478.53
2019-05-23T14:56:46.197Z,100478.53
2019-05-23T15:01:49.968Z,100469.83
2019-05-23T15:06:53.906Z,100471.34
2019-05-23T15:11:57.759Z,100468.38
2019-05-23T15:17:01.548Z,100472.29
2019-05-23T15:22:05.306Z,100472.29
2019-05-23T15:27:09.130Z,100466.86
2019-05-23T15:32:12.910Z,100464.25
2019-05-23T15:37:16.733Z,100451.86
2019-05-23T15:42:20.505Z,100448.28
2019-05-23T15:47:28.008Z,100442.67
2019-05-23T15:52:40.565Z,100438.63
2019-05-23T15:57:59.201Z,100438.63
2019-05-23T16:03:13.845Z,100434.80
2019-05-23T16:08:19.360Z,100432.25
2019-05-23T16:13:23.520Z,100421.67
2019-05-23T16:18:27.724Z,100425.85
2019-05-23T16:23:31.526Z,100419.70
2019-05-23T16:28:35.312Z,100419.70
2019-05-23T16:33:39.338Z,100419.14
2019-05-23T16:38:43.185Z,100417.77
2019-05-23T16:43:47.216Z,100417.85
2019-05-23T16:48:51.370Z,100414.17
2019-05-23T16:53:55.175Z,100414.17
2019-05-23T16:59:21.130Z,100416.06
2019-05-23T17:04:43.879Z,100420.59
2019-05-23T17:10:07.424Z,100410.17
2019-05-23T17:15:05.541Z,100410.17
2019-05-23T17:20:22.252Z,100411.30
2019-05-23T17:25:50.277Z,100416.13
2019-05-23T17:30:57.656Z,100411.17
2019-05-23T17:36:01.530Z,100405.14
2019-05-23T17:41:05.385Z,100405.14
2019-05-23T17:46:09.151Z,100408.69
2019-05-23T17:51:13.134Z,100403.94
2019-05-23T17:56:17.044Z,100403.94
2019-05-23T18:01:24.605Z,100402.00
2019-05-23T18:06:28.793Z,100402.05
2019-05-23T18:11:32.563Z,100402.05
2019-05-23T18:16:37.503Z,100404.05
2019-05-23T18:21:41.682Z,100410.34
2019-05-23T18:26:45.482Z,100401.55
2019-05-23T18:31:50.928Z,100397.16
2019-05-23T18:36:54.740Z,100390.50
2019-05-23T18:41:58.927Z,100405.45
2019-05-23T18:47:04.448Z,100405.45
2019-05-23T18:52:08.795Z,100426.17
2019-05-23T18:57:12.620Z,100426.17
2019-05-23T19:02:16.577Z,100434.03
2019-05-23T19:07:20.388Z,100434.03
2019-05-23T19:12:24.249Z,100441.89
2019-05-23T19:17:28.033Z,100447.99
2019-05-23T19:22:32.071Z,100450.19
2019-05-23T19:27:37.001Z,100454.81
2019-05-23T19:32:40.780Z,100455.73
2019-05-23T19:37:45.218Z,100452.77
2019-05-23T19:42:48.994Z,100452.41
2019-05-23T19:47:52.846Z,100452.41
2019-05-23T19:52:56.695Z,100447.88
2019-05-23T19:58:00.729Z,100428.30
2019-05-23T20:03:04.605Z,100428.30
2019-05-23T20:08:08.536Z,100433.20
2019-05-23T20:13:12.385Z,100425.26
2019-05-23T20:18:16.651Z,100411.93
2019-05-23T20:23:20.425Z,100426.11
2019-05-23T20:28:24.603Z,100429.30
2019-05-23T20:33:28.913Z,100430.91
2019-05-23T20:38:33.011Z,100433.61
2019-05-23T20:43:36.965Z,100433.61
2019-05-23T20:48:40.806Z,100442.02
2019-05-23T20:53:45.399Z,100442.02
2019-05-23T20:58:49.308Z,100434.31
2019-05-23T21:03:54.903Z,100433.75
2019-05-23T21:08:58.748Z,100425.73
2019-05-23T21:14:02.601Z,100430.20
2019-05-23T21:19:06.435Z,100430.20
2019-05-23T21:24:10.276Z,100415.59
2019-05-23T21:29:14.094Z,100414.88
2019-05-23T21:34:17.843Z,100417.66
2019-05-23T21:39:22.171Z,100419.77
2019-05-23T21:44:26.306Z,100419.77
2019-05-23T21:49:30.149Z,100412.16
2019-05-23T21:54:33.912Z,100410.09
2019-05-23T21:59:37.885Z,100406.68
2019-05-23T22:04:49.641Z,100405.83
2019-05-23T22:09:53.455Z,100406.33
2019-05-23T22:14:57.233Z,100406.68
2019-05-23T22:20:01.141Z,100406.55
2019-05-23T22:25:06.193Z,100407.89
2019-05-23T22:30:10.144Z,100407.89
2019-05-23T22:35:17.032Z,100395.14
2019-05-23T22:40:20.831Z,100400.03
2019-05-23T22:45:26.524Z,100395.36
2019-05-23T22:50:30.333Z,100401.14
2019-05-23T22:55:34.097Z,100401.14
2019-05-23T23:00:39.731Z,100401.00
2019-05-23T23:05:43.625Z,100392.42
2019-05-23T23:10:47.395Z,100390.11
2019-05-23T23:15:51.373Z,100395.01
2019-05-23T23:20:55.145Z,100387.48
2019-05-23T23:25:58.941Z,100387.48
2019-05-23T23:31:03.058Z,100384.51
2019-05-23T23:36:06.916Z,100393.62
2019-05-23T23:41:10.709Z,100391.42
2019-05-23T23:46:32.713Z,100391.30
2019-05-23T23:51:54.170Z,100396.69
2019-05-23T23:57:15.337Z,100395.74
